Time;durP1;ratioP1;P1;durP2;ratioP2;P2;SDS_P1;SDS_P2;PMS_P1;PMS_P2;Temp;Humidity;BMP_temperature;BMP_pressure;BME280_temperature;BME280_humidity;BME280_pressure;Samples;Min_cycle;Max_cycle;Signal;HPM_P1;HPM_P2
2021/08/25 00:01:07;;;;;;;10.27;4.50;;;16.10;99.90;;;;;;5073961;28;20670;-76
2021/08/25 00:03:33;;;;;;;8.90;4.43;;;16.20;99.90;;;;;;5085847;28;20204;-77
2021/08/25 00:05:59;;;;;;;9.23;4.70;;;16.30;99.90;;;;;;5087218;28;20238;-76
2021/08/25 00:08:25;;;;;;;10.80;4.47;;;16.30;99.90;;;;;;5070683;28;20220;-76
2021/08/25 00:10:50;;;;;;;10.37;4.53;;;16.20;99.90;;;;;;5084956;28;20770;-76
2021/08/25 00:13:18;;;;;;;9.43;4.70;;;16.30;99.90;;;;;;5088769;28;20208;-76
2021/08/25 00:15:44;;;;;;;10.27;4.50;;;16.20;99.90;;;;;;5089144;28;20231;-76
2021/08/25 00:18:11;;;;;;;11.90;4.33;;;16.20;99.90;;;;;;5083125;28;20209;-76
2021/08/25 00:20:38;;;;;;;10.90;4.37;;;16.10;99.90;;;;;;5071238;28;20183;-77
2021/08/25 00:23:04;;;;;;;9.70;4.43;;;16.00;99.90;;;;;;5084960;28;20209;-76
2021/08/25 00:25:30;;;;;;;9.43;4.43;;;15.90;99.90;;;;;;5087653;28;20256;-76
2021/08/25 00:27:56;;;;;;;12.70;4.67;;;15.90;99.90;;;;;;5082050;28;20338;-76
2021/08/25 00:30:22;;;;;;;8.97;4.37;;;15.90;99.90;;;;;;5085602;28;20179;-76
2021/08/25 00:32:48;;;;;;;8.70;4.43;;;15.90;99.90;;;;;;5089132;28;21069;-76
2021/08/25 00:35:14;;;;;;;11.07;4.13;;;15.80;99.90;;;;;;5086330;28;20543;-76
2021/08/25 00:37:40;;;;;;;8.40;4.30;;;15.70;99.90;;;;;;5088270;28;20220;-76
2021/08/25 00:40:07;;;;;;;10.10;4.00;;;15.70;99.90;;;;;;5083383;28;20189;-76
2021/08/25 00:42:33;;;;;;;11.83;4.70;;;15.70;99.90;;;;;;5084330;28;20189;-76
2021/08/25 00:45:01;;;;;;;12.10;5.47;;;15.70;99.90;;;;;;5087892;28;20204;-76
2021/08/25 00:47:27;;;;;;;11.00;5.03;;;15.60;99.90;;;;;;5070272;28;20191;-77
2021/08/25 00:49:52;;;;;;;10.67;5.03;;;15.80;99.90;;;;;;5071572;28;20560;-76
2021/08/25 00:52:18;;;;;;;13.90;5.20;;;15.80;99.90;;;;;;5070025;28;20250;-77
2021/08/25 00:54:44;;;;;;;12.27;4.80;;;15.80;99.90;;;;;;5089240;28;20246;-77
2021/08/25 00:57:09;;;;;;;11.73;4.60;;;15.90;99.90;;;;;;5070529;28;20700;-77
2021/08/25 00:59:36;;;;;;;9.83;4.00;;;15.80;99.90;;;;;;5066195;28;20307;-77
2021/08/25 01:02:12;;;;;;;10.03;4.03;;;15.80;99.90;;;;;;5091298;28;20197;-77
2021/08/25 01:04:53;;;;;;;11.17;4.37;;;15.60;99.90;;;;;;5053286;28;20599;-77
2021/08/25 01:07:21;;;;;;;11.67;4.63;;;15.50;99.90;;;;;;5085990;28;20176;-77
2021/08/25 01:09:47;;;;;;;9.60;4.53;;;15.50;99.90;;;;;;5086042;28;20263;-76
2021/08/25 01:12:13;;;;;;;10.63;3.93;;;15.40;99.90;;;;;;5087348;28;21715;-76
2021/08/25 01:14:40;;;;;;;10.63;4.47;;;15.30;99.90;;;;;;5088769;28;20662;-76
2021/08/25 01:17:07;;;;;;;10.93;4.23;;;15.20;99.90;;;;;;5086906;28;20700;-77
2021/08/25 01:19:46;;;;;;;11.50;4.93;;;15.10;99.90;;;;;;5087945;28;20648;-77
2021/08/25 01:22:12;;;;;;;11.03;5.17;;;15.10;99.90;;;;;;5073144;28;20274;-77
2021/08/25 01:24:38;;;;;;;11.43;5.20;;;15.10;99.90;;;;;;5069476;28;20186;-76
2021/08/25 01:27:07;;;;;;;11.03;5.17;;;15.20;99.90;;;;;;5083940;28;20207;-76
2021/08/25 01:29:33;;;;;;;14.43;5.50;;;15.20;99.90;;;;;;5069748;28;20207;-75
2021/08/25 01:31:59;;;;;;;12.57;5.57;;;15.20;99.90;;;;;;5088931;28;20268;-76
2021/08/25 01:34:25;;;;;;;11.87;5.10;;;15.20;99.90;;;;;;5057676;28;20184;-76
2021/08/25 01:36:55;;;;;;;14.17;5.63;;;15.20;99.90;;;;;;5082493;28;20187;-76
2021/08/25 01:39:21;;;;;;;11.93;5.00;;;15.20;99.90;;;;;;5071539;28;20199;-76
2021/08/25 01:41:48;;;;;;;12.33;5.77;;;15.20;99.90;;;;;;5091589;28;20618;-76
2021/08/25 01:44:15;;;;;;;10.80;5.10;;;15.30;99.90;;;;;;5085688;28;20719;-77
2021/08/25 01:46:42;;;;;;;11.30;5.57;;;15.30;99.90;;;;;;5063102;28;20235;-76
2021/08/25 01:49:13;;;;;;;9.27;4.73;;;15.30;99.90;;;;;;5070595;28;20229;-76
2021/08/25 01:51:39;;;;;;;14.73;5.10;;;15.40;99.90;;;;;;5071585;28;20184;-76
2021/08/25 01:54:07;;;;;;;13.83;5.40;;;15.30;99.90;;;;;;5087801;28;20184;-76
2021/08/25 01:56:32;;;;;;;11.63;5.37;;;15.30;99.90;;;;;;5068431;28;20179;-77
2021/08/25 01:59:02;;;;;;;15.27;6.17;;;15.30;99.90;;;;;;5068340;28;20199;-76
2021/08/25 02:01:28;;;;;;;16.90;6.00;;;15.30;99.90;;;;;;5087281;28;20181;-75
2021/08/25 02:03:54;;;;;;;12.73;5.97;;;15.20;99.90;;;;;;5090010;28;20633;-76
2021/08/25 02:06:20;;;;;;;13.37;5.70;;;15.20;99.90;;;;;;5085299;28;20196;-76
2021/08/25 02:08:46;;;;;;;13.20;5.80;;;15.20;99.90;;;;;;5090859;28;20187;-76
2021/08/25 02:11:11;;;;;;;13.20;6.50;;;15.20;99.90;;;;;;5068148;28;20180;-78
2021/08/25 02:13:37;;;;;;;12.50;6.27;;;15.20;99.90;;;;;;5086671;28;20191;-75
2021/08/25 02:16:03;;;;;;;12.77;6.20;;;15.20;99.90;;;;;;5072243;28;20224;-76
2021/08/25 02:18:29;;;;;;;14.47;6.47;;;15.10;99.90;;;;;;5089186;28;20214;-76
2021/08/25 02:20:55;;;;;;;13.70;6.13;;;15.10;99.90;;;;;;5088276;28;20187;-77
2021/08/25 02:23:20;;;;;;;15.90;6.17;;;15.10;99.90;;;;;;5084783;28;20187;-76
2021/08/25 02:25:46;;;;;;;11.90;5.77;;;15.10;99.90;;;;;;5074348;28;20553;-76
2021/08/25 02:28:12;;;;;;;15.10;6.93;;;15.00;99.90;;;;;;5069056;28;20258;-76
2021/08/25 02:30:38;;;;;;;11.57;6.03;;;14.90;99.90;;;;;;5084428;28;20222;-76
2021/08/25 02:33:04;;;;;;;14.63;5.90;;;14.90;99.90;;;;;;5085230;28;20188;-76
2021/08/25 02:35:30;;;;;;;14.00;5.67;;;14.90;99.90;;;;;;5066094;28;20218;-76
2021/08/25 02:37:56;;;;;;;11.60;5.77;;;14.90;99.90;;;;;;5070310;28;20183;-76
2021/08/25 02:40:22;;;;;;;11.87;6.07;;;14.90;99.90;;;;;;5072247;28;20179;-77
2021/08/25 02:42:48;;;;;;;17.10;6.40;;;14.90;99.90;;;;;;5086959;28;20215;-76
2021/08/25 02:45:13;;;;;;;13.03;5.53;;;14.90;99.90;;;;;;5092421;28;20282;-76
2021/08/25 02:47:39;;;;;;;13.00;5.80;;;14.90;99.90;;;;;;5076524;28;20184;-76
2021/08/25 02:50:07;;;;;;;13.00;6.10;;;14.80;99.90;;;;;;5092785;28;20588;-76
2021/08/25 02:52:33;;;;;;;12.17;6.00;;;14.80;99.90;;;;;;5075666;28;20187;-76
2021/08/25 02:54:59;;;;;;;12.97;5.90;;;14.90;99.90;;;;;;5089971;28;20184;-76
2021/08/25 02:57:25;;;;;;;10.30;5.07;;;14.90;99.90;;;;;;5092345;28;20206;-77
2021/08/25 02:59:50;;;;;;;12.73;5.47;;;14.90;99.90;;;;;;5089171;28;20210;-76
2021/08/25 03:02:16;;;;;;;11.13;4.93;;;14.90;99.90;;;;;;5092693;28;20192;-76
2021/08/25 03:04:42;;;;;;;13.43;5.97;;;14.80;99.90;;;;;;5086113;28;20170;-76
2021/08/25 03:07:07;;;;;;;11.63;5.47;;;14.70;99.90;;;;;;5091088;28;20638;-78
2021/08/25 03:09:33;;;;;;;10.80;4.43;;;14.70;99.90;;;;;;5074500;28;20207;-77
2021/08/25 03:11:59;;;;;;;16.07;6.47;;;14.60;99.90;;;;;;5090741;28;20187;-77
2021/08/25 03:14:24;;;;;;;15.47;5.30;;;14.60;99.90;;;;;;5092207;28;20194;-77
2021/08/25 03:16:50;;;;;;;11.50;6.10;;;14.50;99.90;;;;;;5054488;28;20228;-77
2021/08/25 03:19:16;;;;;;;13.33;5.73;;;14.50;99.90;;;;;;5072531;28;20680;-77
2021/08/25 03:21:42;;;;;;;13.30;6.00;;;14.70;99.90;;;;;;5071220;28;20180;-77
2021/08/25 03:24:08;;;;;;;11.90;6.13;;;14.80;99.90;;;;;;5092372;28;20188;-77
2021/08/25 03:26:34;;;;;;;14.67;6.30;;;14.80;99.90;;;;;;5074842;28;20187;-77
2021/08/25 03:29:00;;;;;;;13.20;6.47;;;14.70;99.90;;;;;;5068212;28;20274;-76
2021/08/25 03:31:26;;;;;;;11.60;5.67;;;14.60;99.90;;;;;;5073487;28;20199;-75
2021/08/25 03:33:51;;;;;;;12.80;6.00;;;14.50;99.90;;;;;;5086458;28;20244;-75
2021/08/25 03:36:17;;;;;;;10.67;5.10;;;14.50;99.90;;;;;;5091490;28;20195;-75
2021/08/25 03:38:43;;;;;;;13.50;6.20;;;14.50;99.90;;;;;;5092529;28;20195;-75
2021/08/25 03:41:09;;;;;;;15.40;7.37;;;14.40;99.90;;;;;;5089244;28;20555;-75
2021/08/25 03:43:34;;;;;;;15.10;7.23;;;14.40;99.90;;;;;;5071158;28;20187;-75
2021/08/25 03:46:00;;;;;;;15.50;6.77;;;14.30;99.90;;;;;;5082819;28;20223;-75
2021/08/25 03:48:26;;;;;;;12.67;6.60;;;14.30;99.90;;;;;;5090257;28;20194;-75
2021/08/25 03:50:51;;;;;;;13.43;5.73;;;14.30;99.90;;;;;;5091487;28;20589;-75
2021/08/25 03:53:17;;;;;;;12.53;6.10;;;14.40;99.90;;;;;;5071769;28;20664;-77
2021/08/25 03:55:43;;;;;;;13.00;5.70;;;14.50;99.90;;;;;;5087611;28;20647;-76
2021/08/25 03:58:09;;;;;;;11.20;5.90;;;14.50;99.90;;;;;;5092171;28;20680;-76
2021/08/25 04:00:35;;;;;;;14.13;5.90;;;14.40;99.90;;;;;;5072173;28;20190;-76
2021/08/25 04:03:00;;;;;;;13.73;6.47;;;14.50;99.90;;;;;;5057542;28;20210;-76
2021/08/25 04:05:26;;;;;;;13.27;6.23;;;14.50;99.90;;;;;;5073494;28;20357;-76
2021/08/25 04:07:52;;;;;;;13.03;6.60;;;14.40;99.90;;;;;;5082334;28;20214;-76
2021/08/25 04:10:18;;;;;;;14.13;6.80;;;14.40;99.90;;;;;;5069978;28;20183;-76
2021/08/25 04:12:44;;;;;;;14.17;6.87;;;14.30;99.90;;;;;;5073398;28;20183;-76
2021/08/25 04:15:10;;;;;;;13.33;6.47;;;14.30;99.90;;;;;;5071116;28;20221;-77
2021/08/25 04:17:36;;;;;;;12.97;6.30;;;14.30;99.90;;;;;;5070390;28;20216;-76
2021/08/25 04:20:02;;;;;;;11.50;6.27;;;14.40;99.90;;;;;;5072997;28;20190;-76
2021/08/25 04:22:28;;;;;;;15.93;5.97;;;14.30;99.90;;;;;;5070601;28;20213;-76
2021/08/25 04:24:53;;;;;;;11.80;5.33;;;14.20;99.90;;;;;;5072251;28;20655;-77
2021/08/25 04:27:19;;;;;;;11.77;5.50;;;14.20;99.90;;;;;;5072844;28;20215;-77
2021/08/25 04:29:45;;;;;;;12.33;5.57;;;14.10;99.90;;;;;;5086829;28;20191;-76
2021/08/25 04:32:11;;;;;;;12.87;5.90;;;14.00;99.90;;;;;;5068144;28;20183;-77
2021/08/25 04:34:36;;;;;;;12.50;5.73;;;13.90;99.90;;;;;;5087760;28;20212;-77
2021/08/25 04:37:03;;;;;;;13.33;5.70;;;13.90;99.90;;;;;;5072048;28;20295;-77
2021/08/25 04:39:30;;;;;;;14.70;6.27;;;13.90;99.90;;;;;;5073111;28;20244;-77
2021/08/25 04:41:56;;;;;;;13.87;6.27;;;13.90;99.90;;;;;;5089816;28;20185;-76
2021/08/25 04:44:21;;;;;;;13.67;6.37;;;13.90;99.90;;;;;;5086481;28;20405;-76
2021/08/25 04:46:47;;;;;;;13.07;6.23;;;14.00;99.90;;;;;;5051891;28;20202;-76
2021/08/25 04:49:13;;;;;;;13.33;6.90;;;14.10;99.90;;;;;;5072211;28;20193;-77
2021/08/25 04:51:39;;;;;;;14.37;7.20;;;14.10;99.90;;;;;;5084765;28;20197;-76
2021/08/25 04:54:05;;;;;;;13.70;7.37;;;14.20;99.90;;;;;;5085601;28;20182;-76
2021/08/25 04:56:30;;;;;;;14.93;7.30;;;14.20;99.90;;;;;;5069639;28;20566;-76
2021/08/25 04:58:56;;;;;;;20.67;8.23;;;14.20;99.90;;;;;;5089042;28;20208;-76
2021/08/25 05:01:22;;;;;;;18.63;7.90;;;14.20;99.90;;;;;;5090160;28;20232;-76
2021/08/25 05:03:47;;;;;;;13.23;7.40;;;14.20;99.90;;;;;;5068492;28;20936;-77
2021/08/25 05:06:13;;;;;;;17.73;7.83;;;14.20;99.90;;;;;;5090108;28;20185;-76
2021/08/25 05:08:39;;;;;;;15.57;7.40;;;14.10;99.90;;;;;;5089616;28;20198;-76
2021/08/25 05:11:09;;;;;;;16.90;7.97;;;14.20;99.90;;;;;;5088281;28;20204;-76
2021/08/25 05:13:35;;;;;;;15.40;7.80;;;14.20;99.90;;;;;;5073377;28;20174;-76
2021/08/25 05:16:01;;;;;;;14.73;6.97;;;14.20;99.90;;;;;;5069823;28;20223;-76
2021/08/25 05:18:27;;;;;;;14.03;7.30;;;14.10;99.90;;;;;;5087661;28;20257;-76
2021/08/25 05:20:54;;;;;;;14.13;6.30;;;14.10;99.90;;;;;;5085619;28;20190;-76
2021/08/25 05:23:20;;;;;;;15.80;6.63;;;14.10;99.90;;;;;;5068345;28;20191;-76
2021/08/25 05:25:45;;;;;;;12.83;6.50;;;14.00;99.90;;;;;;5086964;28;20219;-76
2021/08/25 05:28:11;;;;;;;14.43;6.50;;;14.10;99.90;;;;;;5088301;28;20202;-76
2021/08/25 05:30:37;;;;;;;16.80;7.00;;;14.10;99.90;;;;;;5087122;28;20183;-77
2021/08/25 05:33:03;;;;;;;12.17;5.90;;;14.20;99.90;;;;;;5083369;28;20197;-75
2021/08/25 05:35:28;;;;;;;14.27;6.10;;;14.30;99.90;;;;;;5068161;28;20598;-75
2021/08/25 05:37:54;;;;;;;12.20;5.70;;;14.70;99.90;;;;;;5088202;28;20767;-75
2021/08/25 05:40:20;;;;;;;11.80;5.23;;;15.60;99.90;;;;;;5084320;28;20212;-75
2021/08/25 05:42:46;;;;;;;13.40;5.70;;;17.00;99.90;;;;;;5071636;28;20179;-77
2021/08/25 05:45:12;;;;;;;11.03;5.50;;;18.00;99.90;;;;;;5083353;28;20201;-75
2021/08/25 05:47:38;;;;;;;12.00;4.90;;;18.80;99.90;;;;;;5087555;28;20185;-75
2021/08/25 05:50:06;;;;;;;10.27;5.20;;;19.50;99.90;;;;;;5071870;28;20182;-76
2021/08/25 05:52:31;;;;;;;13.50;5.67;;;19.90;99.90;;;;;;5088923;28;20199;-75
2021/08/25 05:54:57;;;;;;;11.67;5.50;;;20.30;99.90;;;;;;5088360;28;20182;-76
2021/08/25 05:57:23;;;;;;;12.53;4.90;;;21.10;99.90;;;;;;5067488;28;20259;-75
2021/08/25 05:59:48;;;;;;;9.83;4.73;;;21.90;99.90;;;;;;5069103;28;20222;-76
2021/08/25 06:02:14;;;;;;;12.60;5.20;;;22.20;99.90;;;;;;5089052;28;20184;-75
2021/08/25 06:04:40;;;;;;;10.67;5.40;;;22.00;99.90;;;;;;5054031;28;20201;-75
2021/08/25 06:07:10;;;;;;;10.87;5.47;;;21.90;99.90;;;;;;5070928;28;20796;-76
2021/08/25 06:09:36;;;;;;;18.20;5.57;;;22.10;99.90;;;;;;5053526;28;20286;-77
2021/08/25 06:12:03;;;;;;;13.53;6.30;;;22.30;99.90;;;;;;5068684;28;20247;-77
2021/08/25 06:14:29;;;;;;;15.17;5.50;;;22.80;99.90;;;;;;5089302;28;20192;-77
2021/08/25 06:16:55;;;;;;;17.53;5.57;;;23.10;99.90;;;;;;5089214;28;20226;-76
2021/08/25 06:19:20;;;;;;;14.03;4.87;;;23.60;99.90;;;;;;5067756;28;20207;-77
2021/08/25 06:21:47;;;;;;;18.33;5.87;;;24.10;99.90;;;;;;5053835;28;20187;-77
2021/08/25 06:24:13;;;;;;;16.17;5.53;;;24.70;99.90;;;;;;5070804;28;20266;-77
2021/08/25 06:26:40;;;;;;;10.98;5.25;;;25.30;99.90;;;;;;5086119;28;20267;-77
2021/08/25 06:29:05;;;;;;;11.90;5.90;;;25.50;99.90;;;;;;5092395;28;20228;-77
2021/08/25 06:31:31;;;;;;;10.10;5.35;;;25.90;99.90;;;;;;5087326;28;20175;-77
2021/08/25 06:33:57;;;;;;;12.55;5.63;;;26.10;99.90;;;;;;5069768;28;20213;-77
2021/08/25 06:36:22;;;;;;;15.77;5.70;;;26.10;99.90;;;;;;5090327;28;20215;-77
2021/08/25 06:38:48;;;;;;;12.25;5.90;;;26.40;99.90;;;;;;5089733;28;20202;-78
2021/08/25 06:41:14;;;;;;;11.27;5.70;;;26.40;99.90;;;;;;5090837;28;20532;-79
2021/08/25 06:43:40;;;;;;;12.60;5.90;;;26.70;99.90;;;;;;5059280;28;20644;-79
2021/08/25 06:46:05;;;;;;;13.68;6.13;;;26.50;99.90;;;;;;5090671;28;20380;-79
2021/08/25 06:48:31;;;;;;;12.15;5.88;;;27.10;99.90;;;;;;5062722;28;20310;-79
2021/08/25 06:50:57;;;;;;;12.75;6.28;;;27.40;99.90;;;;;;5073977;28;20179;-79
2021/08/25 06:53:23;;;;;;;11.52;5.70;;;27.70;99.90;;;;;;5095037;28;20515;-79
2021/08/25 06:55:49;;;;;;;11.73;5.95;;;28.10;99.90;;;;;;5093967;28;20175;-79
2021/08/25 06:58:15;;;;;;;12.55;5.80;;;28.90;99.90;;;;;;5060697;28;20222;-79
2021/08/25 07:00:41;;;;;;;11.45;6.03;;;28.70;99.90;;;;;;5073035;28;20172;-79
2021/08/25 07:03:06;;;;;;;12.82;6.32;;;28.80;99.90;;;;;;5059332;28;20183;-80
2021/08/25 07:05:32;;;;;;;13.88;5.65;;;29.20;99.30;;;;;;5093468;28;20644;-79
2021/08/25 07:08:00;;;;;;;13.43;6.35;;;29.10;99.30;;;;;;5085109;28;20187;-79
2021/08/25 07:10:25;;;;;;;10.88;6.20;;;29.50;97.80;;;;;;5075410;28;20596;-79
2021/08/25 07:12:51;;;;;;;12.15;5.97;;;29.80;97.20;;;;;;5092285;28;20254;-79
2021/08/25 07:15:17;;;;;;;11.10;5.82;;;30.00;95.90;;;;;;5092372;28;20214;-79
2021/08/25 07:17:46;;;;;;;11.18;5.57;;;29.60;95.90;;;;;;5073769;28;20195;-79
2021/08/25 07:20:14;;;;;;;10.68;5.85;;;29.00;96.40;;;;;;5078257;28;20210;-79
2021/08/25 07:22:39;;;;;;;14.35;6.05;;;29.00;96.00;;;;;;5074991;28;20252;-79
2021/08/25 07:25:07;;;;;;;10.95;5.57;;;29.00;96.50;;;;;;5077742;28;20175;-79
2021/08/25 07:27:33;;;;;;;12.07;5.38;;;29.20;95.40;;;;;;5090790;28;20237;-79
2021/08/25 07:29:59;;;;;;;12.85;5.43;;;28.80;96.40;;;;;;5081668;28;20645;-78
2021/08/25 07:32:25;;;;;;;11.70;5.38;;;28.80;96.00;;;;;;5091997;28;20187;-79
2021/08/25 07:34:51;;;;;;;10.75;5.63;;;29.50;95.30;;;;;;5092426;28;20190;-79
2021/08/25 07:37:17;;;;;;;12.00;5.90;;;30.10;94.70;;;;;;5101832;28;20181;-79
2021/08/25 07:39:43;;;;;;;9.70;5.40;;;30.30;94.30;;;;;;5060035;28;20578;-79
2021/08/25 07:42:09;;;;;;;11.27;5.70;;;31.30;91.70;;;;;;5089333;28;20255;-79
2021/08/25 07:44:35;;;;;;;11.63;5.82;;;32.40;91.30;;;;;;5070047;28;20613;-79
2021/08/25 07:47:01;;;;;;;12.15;5.78;;;32.30;87.60;;;;;;5074329;28;20227;-79
2021/08/25 07:49:27;;;;;;;12.60;5.70;;;31.10;89.70;;;;;;5089665;28;20211;-79
2021/08/25 07:51:53;;;;;;;12.43;5.60;;;31.20;89.10;;;;;;5090055;28;20191;-79
2021/08/25 07:54:19;;;;;;;12.15;5.32;;;30.60;88.90;;;;;;5091990;28;20561;-79
2021/08/25 07:56:45;;;;;;;10.50;5.88;;;31.50;88.60;;;;;;5083622;28;20179;-79
2021/08/25 07:59:10;;;;;;;10.80;5.93;;;31.00;87.80;;;;;;5072520;28;20218;-79
2021/08/25 08:01:36;;;;;;;12.18;6.13;;;31.50;87.10;;;;;;5051100;28;20189;-80
2021/08/25 08:04:02;;;;;;;13.15;6.00;;;31.10;86.00;;;;;;5091196;28;20203;-83
2021/08/25 08:06:28;;;;;;;11.00;5.18;;;30.60;87.80;;;;;;5078279;28;20164;-85
2021/08/25 08:08:53;;;;;;;12.35;5.70;;;31.60;86.80;;;;;;5073009;28;20171;-85
2021/08/25 08:11:19;;;;;;;12.85;5.82;;;32.40;83.00;;;;;;5059871;28;20641;-87
2021/08/25 08:13:45;;;;;;;11.02;5.68;;;32.40;81.80;;;;;;5092186;28;20190;-87
2021/08/25 08:16:17;;;;;;;10.48;5.60;;;33.10;80.90;;;;;;5059901;28;20218;-88
2021/08/25 08:18:55;;;;;;;10.80;5.50;;;33.80;79.70;;;;;;5063761;28;20225;-87
2021/08/25 08:21:22;;;;;;;11.02;6.32;;;34.40;76.00;;;;;;5058602;28;20648;-86
2021/08/25 08:23:48;;;;;;;10.73;5.80;;;35.10;74.70;;;;;;5061401;28;20187;-86
2021/08/25 08:26:14;;;;;;;14.60;5.93;;;35.30;71.40;;;;;;5071806;28;20187;-87
2021/08/25 08:28:39;;;;;;;11.25;5.40;;;34.70;70.30;;;;;;5077140;28;20190;-86
2021/08/25 08:31:05;;;;;;;12.15;5.88;;;34.00;68.90;;;;;;5060274;28;20269;-86
2021/08/25 08:33:31;;;;;;;12.68;6.32;;;34.10;70.90;;;;;;5074948;28;20199;-86
2021/08/25 08:35:56;;;;;;;11.95;5.15;;;34.10;69.60;;;;;;5076966;28;20186;-87
2021/08/25 08:38:23;;;;;;;11.43;5.25;;;33.20;69.60;;;;;;5073835;28;20707;-86
2021/08/25 08:40:48;;;;;;;11.90;5.88;;;31.90;73.10;;;;;;5059860;28;20191;-87
2021/08/25 08:43:14;;;;;;;12.85;5.80;;;33.10;74.10;;;;;;5072137;28;20172;-87
2021/08/25 08:45:42;;;;;;;12.82;6.03;;;33.90;72.70;;;;;;5068272;28;20175;-86
2021/08/25 08:48:11;;;;;;;11.65;4.93;;;34.80;68.50;;;;;;5058044;28;20224;-87
2021/08/25 08:50:38;;;;;;;8.32;4.20;;;34.50;68.60;;;;;;5058954;28;20184;-86
2021/08/25 08:53:07;;;;;;;11.30;5.05;;;33.80;65.70;;;;;;5056943;28;20519;-86
2021/08/25 08:55:33;;;;;;;11.75;4.72;;;33.70;67.10;;;;;;5068984;28;20182;-86
2021/08/25 08:57:59;;;;;;;11.85;4.53;;;33.30;67.50;;;;;;5056826;28;20175;-86
2021/08/25 09:00:25;;;;;;;8.80;4.30;;;32.70;68.00;;;;;;5072140;28;20200;-86
2021/08/25 09:02:51;;;;;;;9.15;4.30;;;32.50;69.00;;;;;;5057536;28;20700;-86
2021/08/25 09:05:22;;;;;;;9.55;3.78;;;32.30;71.30;;;;;;5073600;28;20292;-86
2021/08/25 09:07:53;;;;;;;9.00;4.00;;;31.80;68.80;;;;;;5072959;28;20183;-87
2021/08/25 09:10:30;;;;;;;8.13;3.50;;;31.90;69.20;;;;;;5072066;28;20192;-86
2021/08/25 09:13:09;;;;;;;8.55;4.20;;;31.70;68.60;;;;;;5059255;28;20204;-86
2021/08/25 09:15:37;;;;;;;13.18;4.35;;;32.10;70.90;;;;;;5058638;28;20261;-86
2021/08/25 09:18:07;;;;;;;13.48;3.67;;;31.90;69.20;;;;;;5075409;28;20661;-86
2021/08/25 09:20:39;;;;;;;10.43;4.10;;;32.40;67.70;;;;;;5056163;28;20183;-83
2021/08/25 09:23:20;;;;;;;10.82;4.00;;;31.50;67.50;;;;;;5060721;28;20596;-83
2021/08/25 09:25:49;;;;;;;11.27;3.65;;;31.50;69.80;;;;;;5073571;28;20182;-83
2021/08/25 09:28:17;;;;;;;8.57;3.80;;;31.80;67.60;;;;;;5075342;28;20183;-83
2021/08/25 09:30:53;;;;;;;8.85;3.45;;;31.20;68.00;;;;;;5058097;28;20621;-83
2021/08/25 09:33:21;;;;;;;10.18;3.72;;;31.40;70.40;;;;;;5070929;28;20213;-83
2021/08/25 09:35:47;;;;;;;9.70;3.60;;;31.20;68.20;;;;;;5071818;28;20208;-83
2021/08/25 09:38:18;;;;;;;8.02;3.38;;;31.70;68.60;;;;;;5050562;28;20203;-84
2021/08/25 09:40:46;;;;;;;9.25;3.63;;;31.60;68.70;;;;;;5090406;28;20183;-83
2021/08/25 09:43:12;;;;;;;9.93;3.72;;;31.50;69.80;;;;;;5070453;28;20191;-84
2021/08/25 09:45:37;;;;;;;10.43;3.83;;;31.60;69.80;;;;;;5091412;28;20250;-83
2021/08/25 09:48:04;;;;;;;8.30;3.50;;;31.90;67.80;;;;;;5056435;28;20275;-84
2021/08/25 09:50:29;;;;;;;8.82;3.70;;;31.80;67.90;;;;;;5058143;28;20182;-83
2021/08/25 09:52:56;;;;;;;9.30;4.10;;;32.10;69.20;;;;;;5072776;28;20231;-83
2021/08/25 09:55:32;;;;;;;8.52;3.40;;;32.40;65.70;;;;;;5055268;28;20704;-83
2021/08/25 09:57:59;;;;;;;7.82;3.42;;;32.20;65.50;;;;;;5074496;28;20201;-83
2021/08/25 10:00:25;;;;;;;7.38;3.55;;;32.00;67.10;;;;;;5061616;28;20167;-83
2021/08/25 10:02:52;;;;;;;9.13;4.00;;;31.60;68.60;;;;;;5077871;28;20649;-83
2021/08/25 10:05:29;;;;;;;8.30;3.20;;;31.20;66.60;;;;;;5079879;28;20171;-83
2021/08/25 10:07:56;;;;;;;8.32;3.53;;;30.80;67.60;;;;;;5061701;28;20538;-82
2021/08/25 10:10:22;;;;;;;8.43;3.25;;;30.40;67.30;;;;;;5077657;28;20183;-83
2021/08/25 10:12:52;;;;;;;8.43;3.67;;;29.90;70.90;;;;;;5092866;28;20297;-84
2021/08/25 10:15:30;;;;;;;9.32;3.50;;;30.70;69.70;;;;;;5080113;28;20591;-83
2021/08/25 10:17:57;;;;;;;8.38;3.17;;;30.90;70.70;;;;;;5059517;28;20637;-82
2021/08/25 10:20:26;;;;;;;11.30;3.95;;;30.80;67.90;;;;;;5076515;28;20187;-83
2021/08/25 10:22:54;;;;;;;8.18;3.17;;;30.20;68.20;;;;;;5075397;28;20237;-83
2021/08/25 10:25:20;;;;;;;11.48;3.53;;;30.10;71.10;;;;;;5078013;28;20191;-84
2021/08/25 10:28:00;;;;;;;10.23;3.75;;;30.40;70.50;;;;;;5063024;28;20186;-83
2021/08/25 10:30:25;;;;;;;10.10;3.60;;;30.10;69.40;;;;;;5059767;28;20270;-83
2021/08/25 10:32:51;;;;;;;8.30;3.33;;;30.10;70.00;;;;;;5061533;28;20376;-83
2021/08/25 10:35:17;;;;;;;10.02;2.97;;;30.00;68.80;;;;;;5074549;28;20604;-83
2021/08/25 10:37:45;;;;;;;8.65;3.42;;;30.00;70.60;;;;;;5072066;28;20185;-83
2021/08/25 10:40:12;;;;;;;9.13;3.05;;;29.60;69.30;;;;;;5063919;28;20207;-83
2021/08/25 10:43:00;;;;;;;8.48;3.97;;;29.60;71.90;;;;;;5078082;28;20190;-83
2021/08/25 10:45:46;;;;;;;9.30;3.28;;;29.40;71.60;;;;;;5061682;28;20236;-84
2021/08/25 10:48:13;;;;;;;9.65;3.20;;;29.10;71.90;;;;;;5058865;28;20199;-83
2021/08/25 10:50:55;;;;;;;8.93;3.40;;;29.20;72.40;;;;;;5062061;28;20611;-84
2021/08/25 10:53:29;;;;;;;9.55;3.40;;;29.60;70.70;;;;;;5056294;28;20270;-84
2021/08/25 10:56:15;;;;;;;7.32;2.90;;;29.10;71.20;;;;;;5074144;28;20245;-84
2021/08/25 10:58:54;;;;;;;14.32;3.15;;;28.70;73.00;;;;;;5078577;28;20211;-84
2021/08/25 11:01:29;;;;;;;8.02;3.00;;;28.40;72.50;;;;;;5061210;28;20187;-84
2021/08/25 11:04:06;;;;;;;7.22;3.15;;;28.90;72.80;;;;;;5076572;28;20570;-83
2021/08/25 11:06:40;;;;;;;8.45;3.00;;;29.00;72.60;;;;;;5070680;28;20195;-84
2021/08/25 11:09:13;;;;;;;9.65;3.00;;;29.30;70.00;;;;;;5057007;28;20178;-83
2021/08/25 11:11:39;;;;;;;8.27;3.25;;;30.80;69.60;;;;;;5074278;28;20210;-84
2021/08/25 11:14:05;;;;;;;9.48;3.20;;;29.70;65.90;;;;;;5076509;28;20179;-83
2021/08/25 11:16:31;;;;;;;7.55;2.85;;;28.90;69.20;;;;;;5091062;28;20224;-85
2021/08/25 11:18:56;;;;;;;8.98;3.67;;;28.70;70.50;;;;;;5078039;28;20206;-84
2021/08/25 11:21:22;;;;;;;8.82;3.47;;;28.00;72.50;;;;;;5079627;28;20186;-82
2021/08/25 11:23:53;;;;;;;8.73;3.92;;;27.50;73.50;;;;;;5072247;28;20168;-84
2021/08/25 11:26:18;;;;;;;9.57;3.58;;;27.20;72.80;;;;;;5061217;28;20597;-82
2021/08/25 11:28:44;;;;;;;8.75;3.60;;;27.20;73.50;;;;;;5074427;28;20240;-82
2021/08/25 11:31:10;;;;;;;6.93;3.22;;;27.80;74.90;;;;;;5075406;28;20183;-82
2021/08/25 11:33:44;;;;;;;8.70;3.25;;;28.60;74.70;;;;;;5072723;28;20211;-82
2021/08/25 11:36:09;;;;;;;8.73;3.50;;;28.20;70.20;;;;;;5073793;28;20194;-81
2021/08/25 11:38:36;;;;;;;8.30;3.28;;;28.00;71.50;;;;;;5056784;28;20264;-81
2021/08/25 11:41:02;;;;;;;9.07;3.33;;;27.70;71.70;;;;;;5088809;28;20179;-83
2021/08/25 11:43:27;;;;;;;8.13;3.50;;;28.00;71.00;;;;;;5057753;28;20175;-83
2021/08/25 11:45:55;;;;;;;8.80;3.63;;;27.80;72.10;;;;;;5074271;28;20711;-82
2021/08/25 11:48:28;;;;;;;10.23;3.55;;;27.30;74.80;;;;;;5078344;28;20213;-81
2021/08/25 11:50:55;;;;;;;7.93;3.80;;;27.00;75.10;;;;;;5056402;28;20195;-83
2021/08/25 11:53:25;;;;;;;9.05;3.83;;;26.80;74.20;;;;;;5090530;28;20205;-82
2021/08/25 11:55:54;;;;;;;8.50;3.45;;;27.00;77.20;;;;;;5068555;28;20175;-83
2021/08/25 11:58:22;;;;;;;8.88;3.35;;;27.50;77.80;;;;;;5059898;28;20187;-83
2021/08/25 12:00:49;;;;;;;10.15;3.67;;;28.20;74.70;;;;;;5073954;28;20167;-84
2021/08/25 12:03:14;;;;;;;8.90;3.70;;;28.80;72.80;;;;;;5059712;28;20237;-84
2021/08/25 12:05:54;;;;;;;9.98;4.10;;;29.30;70.80;;;;;;5063464;28;20186;-84
2021/08/25 12:08:20;;;;;;;10.20;3.63;;;29.70;71.10;;;;;;5065290;28;20184;-84
2021/08/25 12:11:01;;;;;;;10.43;3.70;;;31.10;68.10;;;;;;5060422;28;20213;-83
2021/08/25 12:13:39;;;;;;;9.85;3.72;;;31.10;68.50;;;;;;5056991;28;20739;-84
2021/08/25 12:16:07;;;;;;;8.68;3.45;;;30.80;67.50;;;;;;5070756;28;20226;-83
2021/08/25 12:18:57;;;;;;;8.80;3.45;;;31.00;68.50;;;;;;5063089;28;20207;-84
2021/08/25 12:21:34;;;;;;;9.02;3.63;;;31.00;67.60;;;;;;5058094;28;20555;-83
2021/08/25 12:24:06;;;;;;;12.75;4.10;;;31.00;64.90;;;;;;5055737;28;20576;-84
2021/08/25 12:26:36;;;;;;;11.98;4.05;;;32.20;66.40;;;;;;5055235;28;20179;-84
2021/08/25 12:29:04;;;;;;;11.20;3.83;;;33.10;64.60;;;;;;5056812;28;20198;-83
2021/08/25 12:31:32;;;;;;;10.90;4.30;;;32.00;63.50;;;;;;5073537;28;20654;-83
2021/08/25 12:34:12;;;;;;;9.15;3.80;;;32.30;64.30;;;;;;5058477;28;20190;-83
2021/08/25 12:36:51;;;;;;;10.88;3.83;;;31.30;62.80;;;;;;5055714;28;20187;-84
2021/08/25 12:39:21;;;;;;;9.80;3.88;;;29.50;66.30;;;;;;5072456;28;20199;-83
2021/08/25 12:41:48;;;;;;;6.60;3.33;;;28.50;69.00;;;;;;5055559;28;20900;-83